Bezirksmeisterschaft 2012
Ergebnisliste  Luftgewehr
am 21.04.2012 in Pyrbaum
Schützenklasse
Platz Name Verein Ver-Nr Kennzahl S1 S2 S3 S4 Erg
1 Heckel, Christian  RWS Franken 105015 1.10.10 98 100 96 100 394
2 Weißkopf, Matthias  SG Sachsen 102042 1.10.10 96 99 99 98 392
3 Bauer, Matthias  SSV Neumarkt 101029 1.10.10 97 98 99 96 390
4 Harrer, Markus  SSV Neumarkt 101029 1.10.10 96 97 97 99 389
5 Thürmer, Benjamin  SGr Elbersroth 102067 1.10.10 97 98 96 98 389
5 Bauer, Martin  ZSV Offenbau 110018 1.10.10 97 98 96 98 389
7 Schönwald, Julian  SSV Hesselberg 106062 1.10.10 99 99 98 93 389
8 Thomas, Wolfgang  FSG Greding 103011 1.10.10 96 99 96 97 388
9 Meixner, Sebastian  RWS Franken 105015 1.10.10 97 98 96 97 388
10 Derrer, Michael  SG Diespeck 107004 1.10.10 96 98 98 96 388
11 Waffler, Thomas  SSV Neumarkt 101029 1.10.10 97 95 97 98 387
12 Weber, Achim  SSG Dynamit Fürth 105014 1.10.10 96 97 97 97 387
13 Weinberger, Magnus  RWS Franken 105015 1.10.10 97 98 96 96 387
14 Kellermann, Stefan  SG Diespeck 107004 1.10.10 97 99 95 96 387
15 Hahn, Sebastian  RWS Franken 105015 1.10.10 97 94 96 99 386
16 Maier, Markus  SV Buxheim 103005 1.10.10 94 97 97 98 386
17 Früh, Tobias  RWS Franken 105015 1.10.10 99 97 96 94 386
18 Volz, Henning  SSV Aischgrund 107028 1.10.10 100 96 98 92 386
19 Wegrampf, Peter  SSG Jura-Altmühl 103006 1.10.10 93 98 99 95 385
20 Salfner, Hans  SV Lichtenau 102029 1.10.10 97 95 98 95 385
21 Lang, Tobias  SV Mitteleschenbach 106026 1.10.10 95 98 97 95 385
22 Templer, Michael  SSG Jura-Altmühl 103006 1.10.10 96 99 95 95 385
23 Sperber, Engelbert  SV Hohenstadt 109011 1.10.10 97 96 98 94 385
24 Finsterer, Florian  SSG Jura-Altmühl 103006 1.10.10 94 96 97 97 384
25 Müller, Marco  ZistuSG Katzwang 110012 1.10.10 94 98 96 96 384
26 Martin, Andreas  SG Diespeck 107004 1.10.10 96 97 96 95 384
27 Hefner, Florian  SSV Hesselberg 106062 1.10.10 92 96 97 98 383
28 Deml, Roland  SSV Neumarkt 101029 1.10.10 95 95 96 97 383
29 Ludewig, Manuel  SSV Neumarkt 101029 1.10.10 95 98 93 97 383
29 Schöll, Franz  SV Sondersfeld 101045 1.10.10 95 98 93 97 383
31 Strobl, Christoph  FSG Hilpoltstein 110011 1.10.10 96 96 95 96 383
32 Müller, Florian  SC Schernfeld-Schönau 103040 1.10.10 97 96 94 96 383
33 Wiesinger, Michael  SSG Weissenburg 112026 1.10.10 97 97 93 96 383
34 Hirsch, Andreas  SGr Elbersroth 102067 1.10.10 97 94 97 95 383
35 Strauß, Christoph  SV Virnsberg 102048 1.10.10 97 95 96 95 383
36 Rixner, Christian  SSG Jura-Altmühl 103006 1.10.10 93 98 98 94 383
37 Seubert, Thomas  SGi Köttweinsdorf 109039 1.10.10 95 98 96 94 383
38 Arnold, Christian  SV Mitteleschenbach 106026 1.10.10 94 95 94 99 382
39 Woznik, Gregor  ZistuSG Katzwang 110012 1.10.10 94 96 96 96 382
40 Graf, Christian  SSV Neumarkt 101029 1.10.10 96 94 96 96 382
41 Nepovedomy, Tobias  SGr Elbersroth 102067 1.10.10 95 95 97 95 382
42 Laternik, Michael  SV Gräfenberg 108003 1.10.10 93 97 98 94 382
43 Pöppel, Norbert  SV Irfersdorf 103038 1.10.10 95 97 97 93 382
44 Wagner, Jörg  SG Obernzenn 111019 1.10.10 96 97 96 93 382
45 Legat, Sebastian  SSV Neumarkt 101029 1.10.10 96 97 97 92 382
46 Legat, Markus  SSV Neumarkt 101029 1.10.10 94 94 96 97 381
47 Ott, Rüdiger  SG Burgbernheim 111004 1.10.10 94 95 95 97 381
48 Schweiger, Roland  SV Badanhausen 103003 1.10.10 93 94 98 96 381
49 Seidel, Joachim  SV Berching 101006 1.10.10 94 94 97 96 381
50 Seybold, Thomas  SV Hohenstadt 109011 1.10.10 94 95 94 97 380
51 Hermann, Markus  SV Langenaltheim 112009 1.10.10 94 94 96 96 380
52 Seybold, Markus  SV Mitteleschenbach 106026 1.10.10 96 95 96 93 380
52 Redel, Alexander  SV Waidach 109031 1.10.10 96 95 96 93 380
52 Deistler, Erik  FSG Hilpoltstein 110011 1.10.10 96 95 96 93 380
55 Wittmann, Simon  SV Irfersdorf 103038 1.10.10 93 94 93 99 379
56 Köhler, Gerhard  SSV Aischgrund 107028 1.10.10 96 92 94 97 379
57 Fürstenhöfer, Christian  SSV Aischgrund 107028 1.10.10 92 96 95 96 379
58 Högner, Udo  SSV Neumarkt 101029 1.10.10 94 95 95 95 379
59 März, Thomas  SV Röckersbühl 101040 1.10.10 96 96 92 95 379
60 Vogl, Tobias  SV Irfersdorf 103038 1.10.10 94 97 94 94 379
61 Weißbeck, Jürgen  SSG Weissenburg 112026 1.10.10 97 95 93 94 379
62 Schönleben, Siegfried  SSV Aischgrund 107028 1.10.10 94 98 94 93 379
63 Birner, Jürgen  SSV Aischgrund 107028 1.10.10 95 95 97 92 379
64 Heyden, Christian  SSV Neumarkt 101029 1.10.10 94 93 96 95 378
65 Schweiger, Tobias  SV Badanhausen 103003 1.10.10 92 96 95 95 378
66 Hierl, Sebastian  SF Dormitz 104013 1.10.10 94 95 95 94 378
67 Beck, Norbert  SV Morsbach 103019 1.10.10 95 93 97 93 378
68 Fischer, Reinhard  SGi Pyrbaum 101035 1.10.10 93 96 96 93 378
69 Büchler, Sebastian  SSG Ansbach 102061 1.10.10 92 96 93 96 377
70 Ulbrich, Jürgen  SG Diespeck 107004 1.10.10 93 95 93 96 377
71 Kluy, Martin  SSG Jura-Altmühl 103006 1.10.10 98 90 94 95 377
72 Böckler, Stefan  SG Oberasbach 105010 1.10.10 96 93 93 95 377
73 Lang, Bastian  SSV Neumarkt 101029 1.10.10 93 95 96 93 377
74 Krüger, Uwe  ZistuV Troschenreuth 109027 1.10.10 94 95 97 91 377
75 Babinsky, Michael  SG Diespeck 107004 1.10.10 93 93 93 97 376
76 Körner, Markus  SV Röckersbühl 101040 1.10.10 97 93 92 94 376
77 Wolf, Stefan  SV Waidach 109031 1.10.10 93 96 94 93 376
78 Schmidt, Tobias  FSG Greding 103011 1.10.10 92 96 96 92 376
79 Kühnlein, Mario  FSG Hilpoltstein 110011 1.10.10 94 95 95 92 376
80 Dürst, Christian  SSV Aischgrund 107028 1.10.10 94 91 94 96 375
81 Carl, Florian  SSV Neumarkt 101029 1.10.10 94 92 95 94 375
82 Struller, Christian  SG Eysölden 110006 1.10.10 94 94 93 94 375
83 Serby, Uwe  KPSG Uffenheim 111023 1.10.10 93 94 97 91 375
84 Thiem, Hubert  SGi Köttweinsdorf 109039 1.10.10 92 93 91 98 374
85 Rupp, Franz  FSG Hilpoltstein 110011 1.10.10 91 93 94 96 374
86 Kellermann, Dieter  SSV Aischgrund 107028 1.10.10 94 93 93 94 374
86 Himmelseher, Jürgen  SSV Schwabach-RH-HIP 110035 1.10.10 94 93 93 94 374
88 Heindel, Alexander  ZistuSG Katzwang 110012 1.10.10 94 94 92 94 374
89 Sitzmann, Herbert  SV Weißenbronn 102052 1.10.10 96 90 95 93 374
90 Meyer, Anton  SSG Jura-Altmühl 103006 1.10.10 94 94 93 93 374
91 Hausmann, Markus  SV Oberemmendorf 103037 1.10.10 92 92 95 94 373
92 Spanfellner, Hans-Peter  SSV Hesselberg 106062 1.10.10 90 94 96 93 373
93 Steger, Jan  SSV Aischgrund 107028 1.10.10 96 95 91 91 373
94 Jank, Michael  ZistuSG Katzwang 110012 1.10.10 92 96 95 90 373
95 Popp, Johannes  SV Ickelheim 111010 1.10.10 92 97 95 89 373
96 Hannberger, Christian  SGi Köttweinsdorf 109039 1.10.10 88 91 96 97 372
97 Beck, Stefan  SV Morsbach 103019 1.10.10 89 92 95 96 372
98 Weber, Andreas  SSV Hesselberg 106062 1.10.10 90 92 95 95 372
99 Stephan, Michael  SV Langenaltheim 112009 1.10.10 95 94 88 95 372
100 Rösel, Marco  FSG Hersbruck 109009 1.10.10 92 94 92 94 372
101 Bauer, Joachim  SSV Aischgrund 107028 1.10.10 91 92 96 93 372
102 Lang, Norbert  SV Morsbach 103019 1.10.10 92 94 93 93 372
103 Popp, Maximilian  SV Pfeifferhütte 101033 1.10.10 92 90 97 92 371
104 Kolb, Markus  SV Kleinschwarzenlohe 110013 1.10.10 94 92 93 92 371
105 Schraufl, Marco  SSV Neumarkt 101029 1.10.10 91 96 96 88 371
106 Gutzeit, Jürgen  SV Gräfenberg 108003 1.10.10 93 93 89 95 370
107 Beck, Michael  SG Großhaslach 102021 1.10.10 93 92 92 93 370
108 Teller, Rainer  SSV Worzeldorf 110034 1.10.10 90 95 94 91 370
109 Funk, Johannes  SV Buxheim 103005 1.10.10 93 91 89 96 369
110 Göckert, Alexander  SSV Hesselberg 106062 1.10.10 92 91 93 93 369
111 Bibelriether, Florian  SG Obernzenn 111019 1.10.10 92 91 92 93 368
112 Obernöder, Daniel  SV Langenaltheim 112009 1.10.10 92 91 93 92 368
113 Birkel, Gerald  SSG Weissenburg 112026 1.10.10 90 92 96 88 366
114 Michel, Christoph  SSG Weissenburg 112026 1.10.10 86 94 90 95 365
115 Höfler, Markus  SV Hohenstadt 109011 1.10.10 90 91 92 92 365
116 Pohl, Frank  SG Oberasbach 105010 1.10.10 92 91 91 91 365
117 Homeier, Michael  SG Obernzenn 111019 1.10.10 88 96 88 92 364
118 Brickel, Rainer  ZSV Offenbau 110018 1.10.10 90 90 94 90 364
119 Seidel, Dominik Thomas  SG Oberasbach 105010 1.10.10 87 93 97 87 364
120 Jensen, Andreas  SG Dettenheim 112003 1.10.10 92 89 90 92 363
121 Retta, Markus  SV Ickelheim 111010 1.10.10 88 86 93 95 362
122 Rabenstein, Christian  SV Ickelheim 111010 1.10.10 94 87 90 91 362
123 Meyer, Peter  SV Morsbach 103019 1.10.10 90 94 87 91 362
124 Irmisch, Michael  SG Neuenbürg 104015 1.10.10 91 89 91 90 361
125 Möhring, Thomas  SSV Aischgrund 107028 1.10.10 94 89 88 90 361
126 Eder, Jörg  SV Kaldorf 103017 1.10.10 88 90 93 88 359
127 Sauernheimer, Thomas  SGi Pyrbaum 101035 1.10.10 89 90 89 88 356
128 Bauer, Peter  ZSV Offenbau 110018 1.10.10 90 89 89 88 356
n.a. Betz, Christian  SV Benzendorf 109052 1.10.10 0
n.a. Billenstein, Manfred  SV Egenhausen 102015 1.10.10 0
n.a. Bittl, Markus  SSG Jura-Altmühl 103006 1.10.10 0
n.a. Brisken, Anton  SV Markt Bibart 111017 1.10.10 0
n.a. Duschner, Bernd  SG Altensittenbach 109002 1.10.10 0
n.a. Eder, Alexander  HSG Windsbach 102055 1.10.10 0
n.a. Ellrich, Lars  SSG Jura-Altmühl 103006 1.10.10 0
n.a. Engelhardt, Michael  SV Markt Bibart 111017 1.10.10 0
n.a. Grad, Christian  SV Röckersbühl 101040 1.10.10 0
n.a. Götz, Florian  SV Markt Bibart 111017 1.10.10 0
n.a. Hartnagel, Tobias  SSV Hesselberg 106062 1.10.10 0
n.a. Juranek, Kristian  SSG Weissenburg 112026 1.10.10 0
n.a. Kraus, Manfred  SV Oberemmendorf 103037 1.10.10 0
n.a. Kraus, Martin  SV Oberemmendorf 103037 1.10.10 0
n.a. Marx, Matthias  SV Heng 101020 1.10.10 0
n.a. Popp, Rene  ZistuV Troschenreuth 109027 1.10.10 0
n.a. Pscheidl, Stefan  SV Heng 101020 1.10.10 0
n.a. Rengier, Marc  SG Sugenheim 111021 1.10.10 0
n.a. Renner, Florian  SV Hohenstadt 109011 1.10.10 0
n.a. Roßmann, Claus  SGi Colmberg 102014 1.10.10 0
n.a. Schlett, Daniel  SG Diespeck 107004 1.10.10 0
n.a. Schmidt, Thomas  SV Buxheim 103005 1.10.10 0
n.a. Seidel, Rene  SV Oberkrumbach 109019 1.10.10 0
n.a. Seitz, Jörg  SV Hohenstadt 109011 1.10.10 0
n.a. Sturm, Stefan  SV Gollhofen 111007 1.10.10 0
n.a. Trost, Michael  SV Badanhausen 103003 1.10.10 0
n.a. Urbasik, Alexander  Post SV Nürnberg 108016 1.10.10 0
AK Schindler, Martin  SV Heng 101020 1.10.10 385
AK Schallenberger, Nicolas  RWS Franken 105015 1.10.10 383